sensor_id;sensor_type;location;lat;lon;timestamp;pressure;altitude;pressure_sealevel;temperature;humidity
80640;BME280;69992;60.170;24.692;2024-03-22T00:00:06;101111.00;;;-2.99;32.48
80640;BME280;69992;60.170;24.692;2024-03-22T00:02:30;101109.66;;;-3.70;32.35
80640;BME280;69992;60.170;24.692;2024-03-22T00:04:56;101109.79;;;-3.77;32.38
80640;BME280;69992;60.170;24.692;2024-03-22T00:07:21;101104.39;;;-3.81;32.38
80640;BME280;69992;60.170;24.692;2024-03-22T00:09:47;101099.06;;;-2.89;32.42
80640;BME280;69992;60.170;24.692;2024-03-22T00:12:12;101095.84;;;-2.95;32.43
80640;BME280;69992;60.170;24.692;2024-03-22T00:14:38;101098.05;;;-3.05;32.46
80640;BME280;69992;60.170;24.692;2024-03-22T00:17:04;101100.92;;;-4.01;32.45
80640;BME280;69992;60.170;24.692;2024-03-22T00:19:29;101099.05;;;-3.99;32.44
80640;BME280;69992;60.170;24.692;2024-03-22T00:21:54;101099.24;;;-3.04;32.45
80640;BME280;69992;60.170;24.692;2024-03-22T00:24:20;101101.72;;;-3.02;32.47
80640;BME280;69992;60.170;24.692;2024-03-22T00:26:47;101103.08;;;-3.00;32.47
80640;BME280;69992;60.170;24.692;2024-03-22T00:29:11;101102.07;;;-4.93;32.48
80640;BME280;69992;60.170;24.692;2024-03-22T00:31:37;101109.79;;;-3.87;32.43
80640;BME280;69992;60.170;24.692;2024-03-22T00:34:02;101114.51;;;-2.92;32.41
80640;BME280;69992;60.170;24.692;2024-03-22T00:36:28;101110.45;;;-3.89;32.43
80640;BME280;69992;60.170;24.692;2024-03-22T00:38:53;101102.04;;;-3.98;32.43
80640;BME280;69992;60.170;24.692;2024-03-22T00:41:19;101095.65;;;-3.96;32.46
80640;BME280;69992;60.170;24.692;2024-03-22T00:43:45;101087.55;;;-2.95;32.43
80640;BME280;69992;60.170;24.692;2024-03-22T00:46:11;101085.19;;;-4.02;32.47
80640;BME280;69992;60.170;24.692;2024-03-22T00:48:36;101092.49;;;-3.07;32.47
80640;BME280;69992;60.170;24.692;2024-03-22T00:51:02;101096.87;;;-4.09;32.51
80640;BME280;69992;60.170;24.692;2024-03-22T00:53:28;101092.22;;;-4.04;32.50
80640;BME280;69992;60.170;24.692;2024-03-22T00:55:55;101082.46;;;-3.03;32.49
80640;BME280;69992;60.170;24.692;2024-03-22T00:58:19;101073.67;;;-3.95;32.48
80640;BME280;69992;60.170;24.692;2024-03-22T01:00:45;101067.57;;;-3.84;32.45
80640;BME280;69992;60.170;24.692;2024-03-22T01:03:10;101071.10;;;-4.72;32.42
80640;BME280;69992;60.170;24.692;2024-03-22T01:05:36;101075.91;;;-2.68;32.37
80640;BME280;69992;60.170;24.692;2024-03-22T01:08:02;101078.70;;;-3.70;32.37
80640;BME280;69992;60.170;24.692;2024-03-22T01:10:27;101076.74;;;-3.83;32.45
80640;BME280;69992;60.170;24.692;2024-03-22T01:12:53;101070.98;;;-3.85;32.44
80640;BME280;69992;60.170;24.692;2024-03-22T01:15:19;101070.04;;;-2.93;32.46
80640;BME280;69992;60.170;24.692;2024-03-22T01:17:45;101063.82;;;-3.00;32.46
80640;BME280;69992;60.170;24.692;2024-03-22T01:20:11;101055.84;;;-4.01;32.46
80640;BME280;69992;60.170;24.692;2024-03-22T01:22:36;101046.55;;;-3.09;32.46
80640;BME280;69992;60.170;24.692;2024-03-22T01:25:02;101035.02;;;-3.17;32.51
80640;BME280;69992;60.170;24.692;2024-03-22T01:27:27;101027.35;;;-4.14;32.51
80640;BME280;69992;60.170;24.692;2024-03-22T01:29:53;101023.85;;;-4.11;32.48
80640;BME280;69992;60.170;24.692;2024-03-22T01:32:19;101026.35;;;-4.14;32.50
80640;BME280;69992;60.170;24.692;2024-03-22T01:34:45;101025.58;;;-3.11;32.46
80640;BME280;69992;60.170;24.692;2024-03-22T01:37:11;101018.88;;;-3.14;32.46
80640;BME280;69992;60.170;24.692;2024-03-22T01:39:36;101009.52;;;-4.16;32.46
80640;BME280;69992;60.170;24.692;2024-03-22T01:42:02;100998.54;;;-4.22;32.47
80640;BME280;69992;60.170;24.692;2024-03-22T01:44:29;100993.89;;;-3.18;32.44
80640;BME280;69992;60.170;24.692;2024-03-22T01:46:54;100996.44;;;-3.14;32.42
80640;BME280;69992;60.170;24.692;2024-03-22T01:49:19;100997.72;;;-3.20;32.42
80640;BME280;69992;60.170;24.692;2024-03-22T01:51:45;100982.40;;;-3.22;32.44
80640;BME280;69992;60.170;24.692;2024-03-22T01:54:11;100971.28;;;-4.22;32.47
80640;BME280;69992;60.170;24.692;2024-03-22T01:56:37;100970.76;;;-3.20;32.43
80640;BME280;69992;60.170;24.692;2024-03-22T01:59:03;100980.10;;;-4.22;32.41
80640;BME280;69992;60.170;24.692;2024-03-22T02:01:28;100987.96;;;-4.28;32.43
80640;BME280;69992;60.170;24.692;2024-03-22T02:03:54;100982.76;;;-4.37;32.45
80640;BME280;69992;60.170;24.692;2024-03-22T02:06:19;100983.83;;;-4.43;32.47
80640;BME280;69992;60.170;24.692;2024-03-22T02:08:45;100983.60;;;-4.42;32.46
80640;BME280;69992;60.170;24.692;2024-03-22T02:11:10;100979.80;;;-4.44;32.47
80640;BME280;69992;60.170;24.692;2024-03-22T02:13:36;100974.49;;;-2.60;32.49
80640;BME280;69992;60.170;24.692;2024-03-22T02:16:03;100974.96;;;-3.67;32.54
80640;BME280;69992;60.170;24.692;2024-03-22T02:18:28;100965.80;;;-3.56;32.51
80640;BME280;69992;60.170;24.692;2024-03-22T02:20:53;100952.38;;;-3.60;32.50
80640;BME280;69992;60.170;24.692;2024-03-22T02:23:23;100945.88;;;-3.57;32.49
80640;BME280;69992;60.170;24.692;2024-03-22T02:25:45;100943.97;;;-3.54;32.46
80640;BME280;69992;60.170;24.692;2024-03-22T02:28:10;100946.78;;;-5.49;32.47
80640;BME280;69992;60.170;24.692;2024-03-22T02:30:36;100943.31;;;-3.54;32.47
80640;BME280;69992;60.170;24.692;2024-03-22T02:33:02;100933.54;;;-2.59;32.45
80640;BME280;69992;60.170;24.692;2024-03-22T02:35:28;100931.25;;;-3.60;32.41
80640;BME280;69992;60.170;24.692;2024-03-22T02:37:53;100922.95;;;-3.79;32.45
80640;BME280;69992;60.170;24.692;2024-03-22T02:40:20;100923.06;;;-4.81;32.46
80640;BME280;69992;60.170;24.692;2024-03-22T02:42:45;100919.35;;;-3.74;32.45
80640;BME280;69992;60.170;24.692;2024-03-22T02:45:11;100912.84;;;-4.79;32.44
80640;BME280;69992;60.170;24.692;2024-03-22T02:47:36;100906.55;;;-3.96;32.49
80640;BME280;69992;60.170;24.692;2024-03-22T02:50:02;100903.03;;;-4.99;32.49
80640;BME280;69992;60.170;24.692;2024-03-22T02:52:28;100905.08;;;-4.92;32.49
80640;BME280;69992;60.170;24.692;2024-03-22T02:54:53;100902.98;;;-3.90;32.46
80640;BME280;69992;60.170;24.692;2024-03-22T02:57:19;100901.68;;;-4.86;32.47
80640;BME280;69992;60.170;24.692;2024-03-22T02:59:45;100901.95;;;-4.81;32.45
80640;BME280;69992;60.170;24.692;2024-03-22T03:02:11;100897.04;;;-4.74;32.43
80640;BME280;69992;60.170;24.692;2024-03-22T03:04:36;100892.95;;;-4.77;32.42
80640;BME280;69992;60.170;24.692;2024-03-22T03:07:03;100888.23;;;-3.81;32.42
80640;BME280;69992;60.170;24.692;2024-03-22T03:09:28;100881.03;;;-3.77;32.43
80640;BME280;69992;60.170;24.692;2024-03-22T03:11:54;100866.57;;;-3.69;32.38
80640;BME280;69992;60.170;24.692;2024-03-22T03:14:20;100857.23;;;-3.72;32.38
80640;BME280;69992;60.170;24.692;2024-03-22T03:16:45;100854.26;;;-3.87;32.41
80640;BME280;69992;60.170;24.692;2024-03-22T03:19:11;100848.21;;;-4.03;32.45
80640;BME280;69992;60.170;24.692;2024-03-22T03:21:37;100843.62;;;-4.14;32.46
80640;BME280;69992;60.170;24.692;2024-03-22T03:24:03;100844.32;;;-3.13;32.47
80640;BME280;69992;60.170;24.692;2024-03-22T03:26:29;100846.41;;;-4.13;32.47
80640;BME280;69992;60.170;24.692;2024-03-22T03:28:54;100846.76;;;-4.15;32.46
80640;BME280;69992;60.170;24.692;2024-03-22T03:31:20;100843.48;;;-5.15;32.47
80640;BME280;69992;60.170;24.692;2024-03-22T03:33:46;100843.68;;;-4.21;32.44
80640;BME280;69992;60.170;24.692;2024-03-22T03:36:12;100836.83;;;-5.28;32.46
80640;BME280;69992;60.170;24.692;2024-03-22T03:38:38;100831.14;;;-4.30;32.46
80640;BME280;69992;60.170;24.692;2024-03-22T03:41:04;100823.87;;;-4.24;32.44
80640;BME280;69992;60.170;24.692;2024-03-22T03:43:29;100825.88;;;-4.18;32.43
80640;BME280;69992;60.170;24.692;2024-03-22T03:45:55;100827.61;;;-5.15;32.40
80640;BME280;69992;60.170;24.692;2024-03-22T03:48:21;100833.18;;;-4.21;32.39
80640;BME280;69992;60.170;24.692;2024-03-22T03:50:52;100832.88;;;-4.25;32.41
80640;BME280;69992;60.170;24.692;2024-03-22T03:53:12;100825.77;;;-5.19;32.40
80640;BME280;69992;60.170;24.692;2024-03-22T03:55:38;100816.68;;;-4.17;32.37
80640;BME280;69992;60.170;24.692;2024-03-22T03:58:05;100808.81;;;-4.14;32.36
80640;BME280;69992;60.170;24.692;2024-03-22T04:00:30;100803.09;;;-4.00;32.29
80640;BME280;69992;60.170;24.692;2024-03-22T04:02:56;100801.02;;;-4.04;32.32
80640;BME280;69992;60.170;24.692;2024-03-22T04:05:21;100807.35;;;-5.01;32.35
80640;BME280;69992;60.170;24.692;2024-03-22T04:07:47;100810.74;;;-4.00;32.33
80640;BME280;69992;60.170;24.692;2024-03-22T04:10:13;100817.01;;;-3.88;32.31
80640;BME280;69992;60.170;24.692;2024-03-22T04:12:39;100821.57;;;-3.88;32.28
80640;BME280;69992;60.170;24.692;2024-03-22T04:15:06;100822.77;;;-3.93;32.30
80640;BME280;69992;60.170;24.692;2024-03-22T04:17:30;100819.42;;;-4.03;32.36
80640;BME280;69992;60.170;24.692;2024-03-22T04:19:56;100816.53;;;-3.93;32.33
80640;BME280;69992;60.170;24.692;2024-03-22T04:22:22;100815.20;;;-3.96;32.33
80640;BME280;69992;60.170;24.692;2024-03-22T04:24:48;100807.84;;;-4.06;32.36
80640;BME280;69992;60.170;24.692;2024-03-22T04:27:14;100801.61;;;-4.03;32.36
80640;BME280;69992;60.170;24.692;2024-03-22T04:29:39;100794.59;;;-4.08;32.36
80640;BME280;69992;60.170;24.692;2024-03-22T04:32:06;100784.36;;;-4.18;32.39
80640;BME280;69992;60.170;24.692;2024-03-22T04:34:31;100778.48;;;-4.29;32.41
80640;BME280;69992;60.170;24.692;2024-03-22T04:36:57;100772.72;;;-4.30;32.42
80640;BME280;69992;60.170;24.692;2024-03-22T04:39:22;100768.18;;;-4.26;32.41
80640;BME280;69992;60.170;24.692;2024-03-22T04:41:48;100769.27;;;-4.24;32.40
80640;BME280;69992;60.170;24.692;2024-03-22T04:44:14;100766.08;;;-5.20;32.42
80640;BME280;69992;60.170;24.692;2024-03-22T04:46:40;100765.96;;;-4.23;32.39
80640;BME280;69992;60.170;24.692;2024-03-22T04:49:06;100763.91;;;-5.20;32.39
80640;BME280;69992;60.170;24.692;2024-03-22T04:51:31;100756.95;;;-4.30;32.40
80640;BME280;69992;60.170;24.692;2024-03-22T04:53:57;100755.16;;;-4.26;32.40
80640;BME280;69992;60.170;24.692;2024-03-22T04:56:23;100755.65;;;-4.24;32.38
80640;BME280;69992;60.170;24.692;2024-03-22T04:58:49;100760.31;;;-4.30;32.39
80640;BME280;69992;60.170;24.692;2024-03-22T05:01:14;100764.67;;;-5.40;32.40
80640;BME280;69992;60.170;24.692;2024-03-22T05:03:40;100761.29;;;-4.50;32.42
80640;BME280;69992;60.170;24.692;2024-03-22T05:06:07;100766.64;;;-4.56;32.46
80640;BME280;69992;60.170;24.692;2024-03-22T05:08:32;100769.69;;;-4.51;32.46
80640;BME280;69992;60.170;24.692;2024-03-22T05:10:58;100770.23;;;-4.55;32.44
80640;BME280;69992;60.170;24.692;2024-03-22T05:13:23;100761.79;;;-4.51;32.41
80640;BME280;69992;60.170;24.692;2024-03-22T05:15:49;100760.93;;;-4.52;32.42
80640;BME280;69992;60.170;24.692;2024-03-22T05:18:15;100757.46;;;-4.52;32.43
80640;BME280;69992;60.170;24.692;2024-03-22T05:20:41;100750.91;;;-4.52;32.43
80640;BME280;69992;60.170;24.692;2024-03-22T05:23:07;100743.04;;;-5.44;32.41
80640;BME280;69992;60.170;24.692;2024-03-22T05:25:32;100743.06;;;-4.40;32.40
80640;BME280;69992;60.170;24.692;2024-03-22T05:27:58;100741.52;;;-4.38;32.37
80640;BME280;69992;60.170;24.692;2024-03-22T05:30:24;100744.36;;;-4.41;32.40
80640;BME280;69992;60.170;24.692;2024-03-22T05:32:50;100745.71;;;-4.38;32.38
80640;BME280;69992;60.170;24.692;2024-03-22T05:35:15;100746.10;;;-4.49;32.40
80640;BME280;69992;60.170;24.692;2024-03-22T05:37:41;100746.91;;;-4.50;32.40
80640;BME280;69992;60.170;24.692;2024-03-22T05:40:08;100755.01;;;-6.50;32.43
80640;BME280;69992;60.170;24.692;2024-03-22T05:42:33;100749.56;;;-4.42;32.42
80640;BME280;69992;60.170;24.692;2024-03-22T05:44:59;100749.92;;;-4.35;32.41
80640;BME280;69992;60.170;24.692;2024-03-22T05:47:24;100743.95;;;-4.24;32.40
80640;BME280;69992;60.170;24.692;2024-03-22T05:49:50;100737.92;;;-4.17;32.39
80640;BME280;69992;60.170;24.692;2024-03-22T05:52:16;100735.81;;;-4.04;32.37
80640;BME280;69992;60.170;24.692;2024-03-22T05:54:42;100736.99;;;-3.96;32.32
80640;BME280;69992;60.170;24.692;2024-03-22T05:57:08;100734.63;;;-4.95;32.32
80640;BME280;69992;60.170;24.692;2024-03-22T05:59:33;100734.31;;;-4.93;32.32
80640;BME280;69992;60.170;24.692;2024-03-22T06:01:59;100736.41;;;-4.08;32.34
80640;BME280;69992;60.170;24.692;2024-03-22T06:04:25;100736.97;;;-4.11;32.36
80640;BME280;69992;60.170;24.692;2024-03-22T06:06:51;100729.64;;;-4.20;32.40
80640;BME280;69992;60.170;24.692;2024-03-22T06:09:16;100727.22;;;-4.19;32.43
80640;BME280;69992;60.170;24.692;2024-03-22T06:11:42;100729.48;;;-4.08;32.38
80640;BME280;69992;60.170;24.692;2024-03-22T06:14:08;100723.63;;;-5.06;32.42
80640;BME280;69992;60.170;24.692;2024-03-22T06:16:33;100718.29;;;-4.94;32.41
80640;BME280;69992;60.170;24.692;2024-03-22T06:18:59;100714.63;;;-3.88;32.40
80640;BME280;69992;60.170;24.692;2024-03-22T06:21:28;100711.75;;;-4.78;32.39
80640;BME280;69992;60.170;24.692;2024-03-22T06:23:51;100710.43;;;-3.78;32.36
80640;BME280;69992;60.170;24.692;2024-03-22T06:26:17;100704.62;;;-3.74;32.40
80640;BME280;69992;60.170;24.692;2024-03-22T06:28:42;100702.36;;;-4.54;32.38
80640;BME280;69992;60.170;24.692;2024-03-22T06:31:08;100694.29;;;-3.44;32.37
80640;BME280;69992;60.170;24.692;2024-03-22T06:33:35;100678.11;;;-4.36;32.39
80640;BME280;69992;60.170;24.692;2024-03-22T06:36:00;100671.84;;;-3.37;32.40
80640;BME280;69992;60.170;24.692;2024-03-22T06:38:25;100665.45;;;-4.12;32.32
80640;BME280;69992;60.170;24.692;2024-03-22T06:40:51;100663.46;;;-4.11;32.34
80640;BME280;69992;60.170;24.692;2024-03-22T06:43:17;100655.88;;;-4.07;32.36
80640;BME280;69992;60.170;24.692;2024-03-22T06:45:43;100652.60;;;-3.01;32.36
80640;BME280;69992;60.170;24.692;2024-03-22T06:48:08;100644.05;;;-3.96;32.34
80640;BME280;69992;60.170;24.692;2024-03-22T06:50:34;100631.76;;;-3.07;32.36
80640;BME280;69992;60.170;24.692;2024-03-22T06:53:00;100629.49;;;-4.00;32.39
80640;BME280;69992;60.170;24.692;2024-03-22T06:55:26;100633.81;;;-2.90;32.37
80640;BME280;69992;60.170;24.692;2024-03-22T06:57:52;100635.71;;;-2.80;32.38
80640;BME280;69992;60.170;24.692;2024-03-22T07:00:18;100640.80;;;-3.62;32.38
80640;BME280;69992;60.170;24.692;2024-03-22T07:02:43;100638.60;;;-3.53;32.34
80640;BME280;69992;60.170;24.692;2024-03-22T07:05:09;100637.89;;;-4.43;32.38
80640;BME280;69992;60.170;24.692;2024-03-22T07:07:35;100627.05;;;-3.36;32.35
80640;BME280;69992;60.170;24.692;2024-03-22T07:10:02;100624.20;;;-3.32;32.37
80640;BME280;69992;60.170;24.692;2024-03-22T07:12:26;100621.91;;;-3.21;32.36
80640;BME280;69992;60.170;24.692;2024-03-22T07:14:52;100622.13;;;-2.20;32.33
80640;BME280;69992;60.170;24.692;2024-03-22T07:17:18;100618.79;;;-4.11;32.34
80640;BME280;69992;60.170;24.692;2024-03-22T07:19:44;100617.23;;;-3.17;32.35
80640;BME280;69992;60.170;24.692;2024-03-22T07:22:10;100618.99;;;-4.19;32.38
80640;BME280;69992;60.170;24.692;2024-03-22T07:24:36;100612.49;;;-3.26;32.37
80640;BME280;69992;60.170;24.692;2024-03-22T07:27:01;100605.38;;;-2.32;32.40
80640;BME280;69992;60.170;24.692;2024-03-22T07:29:27;100594.70;;;-3.28;32.40
80640;BME280;69992;60.170;24.692;2024-03-22T07:31:52;100595.91;;;-3.24;32.40
80640;BME280;69992;60.170;24.692;2024-03-22T07:34:18;100593.77;;;-3.25;32.43
80640;BME280;69992;60.170;24.692;2024-03-22T07:36:44;100587.80;;;-3.30;32.46
80640;BME280;69992;60.170;24.692;2024-03-22T07:39:10;100577.23;;;-3.40;32.51
80640;BME280;69992;60.170;24.692;2024-03-22T07:41:36;100575.52;;;-2.49;32.51
80640;BME280;69992;60.170;24.692;2024-03-22T07:44:02;100573.32;;;-3.45;32.52
80640;BME280;69992;60.170;24.692;2024-03-22T07:46:28;100576.28;;;-3.34;32.48
80640;BME280;69992;60.170;24.692;2024-03-22T07:48:53;100569.21;;;-2.31;32.48
80640;BME280;69992;60.170;24.692;2024-03-22T07:51:19;100564.70;;;-4.18;32.49
80640;BME280;69992;60.170;24.692;2024-03-22T07:53:45;100566.95;;;-4.11;32.47
80640;BME280;69992;60.170;24.692;2024-03-22T07:56:10;100566.02;;;-4.17;32.49
80640;BME280;69992;60.170;24.692;2024-03-22T07:58:38;100563.92;;;-3.29;32.52
80640;BME280;69992;60.170;24.692;2024-03-22T08:01:02;100561.69;;;-3.35;32.53
80640;BME280;69992;60.170;24.692;2024-03-22T08:03:28;100559.42;;;-3.36;32.55
80640;BME280;69992;60.170;24.692;2024-03-22T08:05:55;100552.61;;;-3.31;32.54
80640;BME280;69992;60.170;24.692;2024-03-22T08:08:19;100548.14;;;-4.34;32.54
80640;BME280;69992;60.170;24.692;2024-03-22T08:10:45;100541.17;;;-2.41;32.56
80640;BME280;69992;60.170;24.692;2024-03-22T08:13:11;100534.80;;;-4.29;32.57
80640;BME280;69992;60.170;24.692;2024-03-22T08:15:37;100533.93;;;-4.27;32.58
80640;BME280;69992;60.170;24.692;2024-03-22T08:18:02;100531.57;;;-3.21;32.57
80640;BME280;69992;60.170;24.692;2024-03-22T08:20:28;100529.47;;;-3.14;32.55
80640;BME280;69992;60.170;24.692;2024-03-22T08:22:54;100518.06;;;-3.21;32.55
80640;BME280;69992;60.170;24.692;2024-03-22T08:25:20;100509.13;;;-3.18;32.57
80640;BME280;69992;60.170;24.692;2024-03-22T08:27:46;100507.14;;;-3.04;32.56
80640;BME280;69992;60.170;24.692;2024-03-22T08:30:12;100499.11;;;-3.00;32.58
80640;BME280;69992;60.170;24.692;2024-03-22T08:32:37;100492.58;;;-3.89;32.58
80640;BME280;69992;60.170;24.692;2024-03-22T08:35:03;100482.88;;;-2.77;32.55
80640;BME280;69992;60.170;24.692;2024-03-22T08:37:29;100478.28;;;-2.70;32.53
80640;BME280;69992;60.170;24.692;2024-03-22T08:39:54;100466.19;;;-3.67;32.55
80640;BME280;69992;60.170;24.692;2024-03-22T08:42:20;100462.08;;;-2.69;32.58
80640;BME280;69992;60.170;24.692;2024-03-22T08:44:46;100453.65;;;-3.61;32.58
80640;BME280;69992;60.170;24.692;2024-03-22T08:47:12;100454.69;;;-4.67;32.61
80640;BME280;69992;60.170;24.692;2024-03-22T08:49:37;100460.31;;;-2.66;32.60
80640;BME280;69992;60.170;24.692;2024-03-22T08:52:04;100461.86;;;-2.57;32.57
80640;BME280;69992;60.170;24.692;2024-03-22T08:54:29;100460.30;;;-2.47;32.53
80640;BME280;69992;60.170;24.692;2024-03-22T08:56:55;100463.09;;;-2.68;32.59
80640;BME280;69992;60.170;24.692;2024-03-22T08:59:20;100464.12;;;-3.75;32.62
80640;BME280;69992;60.170;24.692;2024-03-22T09:01:46;100459.29;;;-2.84;32.63
80640;BME280;69992;60.170;24.692;2024-03-22T09:04:11;100461.13;;;-4.82;32.66
80640;BME280;69992;60.170;24.692;2024-03-22T09:06:37;100463.55;;;-3.84;32.66
80640;BME280;69992;60.170;24.692;2024-03-22T09:09:02;100461.04;;;-2.92;32.69
80640;BME280;69992;60.170;24.692;2024-03-22T09:11:28;100456.17;;;-3.83;32.69
80640;BME280;69992;60.170;24.692;2024-03-22T09:13:54;100448.64;;;-2.81;32.68
80640;BME280;69992;60.170;24.692;2024-03-22T09:16:20;100442.79;;;-2.85;32.68
80640;BME280;69992;60.170;24.692;2024-03-22T09:18:46;100442.45;;;-3.85;32.70
80640;BME280;69992;60.170;24.692;2024-03-22T09:21:11;100437.42;;;-2.89;32.69
80640;BME280;69992;60.170;24.692;2024-03-22T09:23:37;100438.66;;;-2.96;32.70
80640;BME280;69992;60.170;24.692;2024-03-22T09:26:02;100434.70;;;-3.03;32.74
80640;BME280;69992;60.170;24.692;2024-03-22T09:28:28;100423.46;;;-3.05;32.74
80640;BME280;69992;60.170;24.692;2024-03-22T09:30:54;100416.82;;;-4.11;32.79
80640;BME280;69992;60.170;24.692;2024-03-22T09:33:20;100418.60;;;-4.03;32.82
80640;BME280;69992;60.170;24.692;2024-03-22T09:35:46;100412.75;;;-2.89;32.77
80640;BME280;69992;60.170;24.692;2024-03-22T09:38:11;100413.36;;;-3.73;32.75
80640;BME280;69992;60.170;24.692;2024-03-22T09:40:38;100414.35;;;-2.66;32.71
80640;BME280;69992;60.170;24.692;2024-03-22T09:43:05;100412.19;;;-2.66;32.70
80640;BME280;69992;60.170;24.692;2024-03-22T09:45:30;100401.53;;;-3.55;32.72
80640;BME280;69992;60.170;24.692;2024-03-22T09:47:56;100393.76;;;-3.42;32.72
80640;BME280;69992;60.170;24.692;2024-03-22T09:50:20;100393.41;;;-3.30;32.68
80640;BME280;69992;60.170;24.692;2024-03-22T09:52:46;100390.06;;;-2.30;32.71
80640;BME280;69992;60.170;24.692;2024-03-22T09:55:12;100386.07;;;-3.25;32.74
80640;BME280;69992;60.170;24.692;2024-03-22T09:57:38;100391.36;;;-2.19;32.74
80640;BME280;69992;60.170;24.692;2024-03-22T10:00:06;100382.44;;;-3.14;32.73
80640;BME280;69992;60.170;24.692;2024-03-22T10:02:29;100376.78;;;-3.10;32.75
80640;BME280;69992;60.170;24.692;2024-03-22T10:04:57;100370.16;;;-2.03;32.75
80640;BME280;69992;60.170;24.692;2024-03-22T10:07:21;100358.58;;;-2.99;32.77
80640;BME280;69992;60.170;24.692;2024-03-22T10:09:46;100354.71;;;-2.93;32.77
80640;BME280;69992;60.170;24.692;2024-03-22T10:12:12;100345.97;;;-2.93;32.80
80640;BME280;69992;60.170;24.692;2024-03-22T10:14:38;100341.94;;;-2.86;32.79
80640;BME280;69992;60.170;24.692;2024-03-22T10:17:05;100333.23;;;-2.83;32.83
80640;BME280;69992;60.170;24.692;2024-03-22T10:19:30;100325.62;;;-2.76;32.82
80640;BME280;69992;60.170;24.692;2024-03-22T10:22:02;100322.81;;;-2.65;32.81
80640;BME280;69992;60.170;24.692;2024-03-22T10:24:21;100321.99;;;-2.52;32.77
80640;BME280;69992;60.170;24.692;2024-03-22T10:26:47;100316.48;;;-2.48;32.78
80640;BME280;69992;60.170;24.692;2024-03-22T10:29:13;100307.55;;;-2.44;32.80
80640;BME280;69992;60.170;24.692;2024-03-22T10:31:39;100306.70;;;-3.12;32.15
80640;BME280;69992;60.170;24.692;2024-03-22T10:34:06;100301.53;;;-1.52;32.31
80640;BME280;69992;60.170;24.692;2024-03-22T10:36:32;100302.76;;;-2.01;32.55
80640;BME280;69992;60.170;24.692;2024-03-22T10:38:56;100306.08;;;-2.21;32.67
80640;BME280;69992;60.170;24.692;2024-03-22T10:41:22;100301.35;;;-3.29;32.73
80640;BME280;69992;60.170;24.692;2024-03-22T10:43:47;100298.84;;;-2.48;32.81
80640;BME280;69992;60.170;24.692;2024-03-22T10:46:13;100291.51;;;-2.70;32.86
80640;BME280;69992;60.170;24.692;2024-03-22T10:48:39;100288.93;;;-2.85;32.91
80640;BME280;69992;60.170;24.692;2024-03-22T10:51:06;100282.83;;;-2.04;32.94
80640;BME280;69992;60.170;24.692;2024-03-22T10:53:32;100278.70;;;-2.09;33.00
80640;BME280;69992;60.170;24.692;2024-03-22T10:55:56;100271.88;;;-2.99;32.97
80640;BME280;69992;60.170;24.692;2024-03-22T10:58:22;100264.09;;;-2.98;32.97
80640;BME280;69992;60.170;24.692;2024-03-22T11:00:52;100255.01;;;-2.91;32.96
80640;BME280;69992;60.170;24.692;2024-03-22T11:03:13;100246.36;;;-2.89;32.95
80640;BME280;69992;60.170;24.692;2024-03-22T11:05:45;100242.79;;;-2.94;32.92
80640;BME280;69992;60.170;24.692;2024-03-22T11:08:06;100240.28;;;-3.03;32.93
80640;BME280;69992;60.170;24.692;2024-03-22T11:10:31;100233.18;;;-3.03;32.94
80640;BME280;69992;60.170;24.692;2024-03-22T11:13:00;100230.30;;;-3.00;32.92
80640;BME280;69992;60.170;24.692;2024-03-22T11:15:22;100225.69;;;-2.95;32.91
80640;BME280;69992;60.170;24.692;2024-03-22T11:17:47;100220.64;;;-2.89;32.90
80640;BME280;69992;60.170;24.692;2024-03-22T11:20:13;100212.28;;;-2.76;32.90
80640;BME280;69992;60.170;24.692;2024-03-22T11:22:39;100211.55;;;-2.74;32.85
80640;BME280;69992;60.170;24.692;2024-03-22T11:25:05;100199.78;;;-1.85;32.88
80640;BME280;69992;60.170;24.692;2024-03-22T11:27:29;100195.91;;;-2.95;32.92
80640;BME280;69992;60.170;24.692;2024-03-22T11:29:55;100189.02;;;-3.01;32.96
80640;BME280;69992;60.170;24.692;2024-03-22T11:32:21;100182.16;;;-2.96;32.97
80640;BME280;69992;60.170;24.692;2024-03-22T11:34:47;100174.96;;;-2.86;32.97
80640;BME280;69992;60.170;24.692;2024-03-22T11:37:12;100166.21;;;-2.72;32.94
80640;BME280;69992;60.170;24.692;2024-03-22T11:39:38;100159.14;;;-2.57;32.90
80640;BME280;69992;60.170;24.692;2024-03-22T11:42:06;100157.27;;;-2.48;32.90
80640;BME280;69992;60.170;24.692;2024-03-22T11:44:30;100155.71;;;-3.40;32.90
80640;BME280;69992;60.170;24.692;2024-03-22T11:46:55;100147.34;;;-2.48;32.92
80640;BME280;69992;60.170;24.692;2024-03-22T11:49:21;100140.53;;;-3.53;32.96
80640;BME280;69992;60.170;24.692;2024-03-22T11:51:47;100134.09;;;-2.44;32.92
80640;BME280;69992;60.170;24.692;2024-03-22T11:54:12;100129.84;;;-4.38;32.92
80640;BME280;69992;60.170;24.692;2024-03-22T11:56:40;100127.55;;;-2.44;32.89
80640;BME280;69992;60.170;24.692;2024-03-22T11:59:04;100128.86;;;-2.57;32.89
80640;BME280;69992;60.170;24.692;2024-03-22T12:01:30;100124.42;;;-2.71;32.97
80640;BME280;69992;60.170;24.692;2024-03-22T12:03:55;100119.66;;;-2.79;33.01
80640;BME280;69992;60.170;24.692;2024-03-22T12:06:21;100118.58;;;-2.83;33.01
80640;BME280;69992;60.170;24.692;2024-03-22T12:08:46;100110.66;;;-2.71;32.94
80640;BME280;69992;60.170;24.692;2024-03-22T12:11:13;100099.75;;;-3.57;32.89
80640;BME280;69992;60.170;24.692;2024-03-22T12:13:38;100097.55;;;-2.70;32.91
80640;BME280;69992;60.170;24.692;2024-03-22T12:16:06;100088.53;;;-3.76;32.95
80640;BME280;69992;60.170;24.692;2024-03-22T12:18:29;100080.51;;;-2.95;33.03
80640;BME280;69992;60.170;24.692;2024-03-22T12:20:55;100078.72;;;-3.04;33.06
80640;BME280;69992;60.170;24.692;2024-03-22T12:23:21;100074.65;;;-3.07;33.06
80640;BME280;69992;60.170;24.692;2024-03-22T12:25:47;100073.51;;;-2.05;33.07
80640;BME280;69992;60.170;24.692;2024-03-22T12:28:12;100070.39;;;-4.86;33.04
80640;BME280;69992;60.170;24.692;2024-03-22T12:30:38;100065.38;;;-2.94;33.04